Taller para Instructores 2018

Taller para Instructores de Piloto Privado de Avión

Nos visitaron en el mes de Julio del 2018  los integrantes de la ANAC y la Federación Argentina de Aeroclubes con el motivo de realizar el Taller para Instructores de Piloto Privado de Avión. Agradecemos en su confianza para con nosotros como así también de la presencia de los instructores de la zona.

Facebook Aeroclub Mar del Plata

Informe Climatico
MAR DEL PLATA AR
Metar
SAZM 190700Z 18003KT 9999 OVC015 18/14 Q1008

07:00 UTC

Wind: 180° 3kt

Visibility: 9999 m

Sky: OVC 1500 ft

Temp: 18 deg C / 64.4 deg F

Dewpoint: 14 deg C / 57.2 deg F

Pressure: 1008 hPa

TAF
TAF SAZM 190500Z 1906/2006 32010KT 9999 SCT020 FEW040CB BKN060 TX21/1918Z TN12/1910Z PROB30 TEMPO 1907/1911 23005KT 7000 SHRA FEW040CB BKN050 BECMG 1912/1915 16010KT 9999 SCT020 BECMG 1921/1923 24015KT
1
Hola ¿ En qué podemos ayudarte? Puedes consultarnos sobre nuestras actividades aquí...
Powered by